createdAt,value
2019-02-17T00:01:31.062Z,13.93
2019-02-17T00:06:21.949Z,14.67
2019-02-17T00:11:12.998Z,13.23
2019-02-17T00:16:03.888Z,13.77
2019-02-17T00:20:54.801Z,12.93
2019-02-17T00:25:45.689Z,14.00
2019-02-17T00:30:37.325Z,12.70
2019-02-17T00:35:28.957Z,13.90
2019-02-17T00:40:19.850Z,13.68
2019-02-17T00:45:10.747Z,13.35
2019-02-17T00:50:01.670Z,12.00
2019-02-17T00:54:52.565Z,12.60
2019-02-17T00:59:43.465Z,11.87
2019-02-17T01:04:35.110Z,11.87
2019-02-17T01:09:26.029Z,10.13
2019-02-17T01:14:16.933Z,10.07
2019-02-17T01:19:08.599Z,11.20
2019-02-17T01:23:59.815Z,10.10
2019-02-17T01:28:50.722Z,11.33
2019-02-17T01:33:41.637Z,11.27
2019-02-17T01:38:33.287Z,10.27
2019-02-17T01:43:24.208Z,10.17
2019-02-17T01:48:15.109Z,9.40
2019-02-17T01:53:06.749Z,9.23
2019-02-17T01:57:58.401Z,9.63
2019-02-17T02:02:49.293Z,9.40
2019-02-17T02:07:40.934Z,8.53
2019-02-17T02:12:32.583Z,9.47
2019-02-17T02:17:23.494Z,9.50
2019-02-17T02:22:14.401Z,10.23
2019-02-17T02:27:06.040Z,9.90
2019-02-17T02:31:57.692Z,9.33
2019-02-17T02:36:48.593Z,9.67
2019-02-17T02:41:40.255Z,9.20
2019-02-17T02:46:31.148Z,9.20
2019-02-17T02:51:22.802Z,8.33
2019-02-17T02:56:13.704Z,8.70
2019-02-17T03:01:05.346Z,9.10
2019-02-17T03:06:00.277Z,10.23
2019-02-17T03:10:51.177Z,9.00
2019-02-17T03:15:42.081Z,9.95
2019-02-17T03:20:33.734Z,9.13
2019-02-17T03:25:24.637Z,9.00
2019-02-17T03:30:16.298Z,8.57
2019-02-17T03:35:07.199Z,8.23
2019-02-17T03:39:58.854Z,9.40
2019-02-17T03:44:49.779Z,8.20
2019-02-17T03:49:40.690Z,9.10
2019-02-17T03:54:31.601Z,9.00
2019-02-17T03:59:22.508Z,9.48
2019-02-17T04:04:14.156Z,8.50
2019-02-17T04:09:05.061Z,10.13
2019-02-17T04:13:56.793Z,9.00
2019-02-17T04:18:47.641Z,8.40
2019-02-17T04:23:38.534Z,8.00
2019-02-17T04:28:30.193Z,8.17
2019-02-17T04:33:21.104Z,7.90
2019-02-17T04:38:12.016Z,9.10
2019-02-17T04:43:02.945Z,8.40
2019-02-17T04:47:54.595Z,7.70
2019-02-17T04:52:45.493Z,8.40
2019-02-17T04:57:36.392Z,7.85
2019-02-17T05:02:28.035Z,7.33
2019-02-17T05:07:19.687Z,8.60
2019-02-17T05:12:10.612Z,8.80
2019-02-17T05:17:01.527Z,8.03
2019-02-17T05:21:52.443Z,7.60
2019-02-17T05:26:43.347Z,8.50
2019-02-17T05:31:34.258Z,7.63
2019-02-17T05:36:25.934Z,7.00
2019-02-17T05:41:16.850Z,7.80
2019-02-17T05:46:07.757Z,9.20
2019-02-17T05:50:58.675Z,9.40
2019-02-17T05:55:49.607Z,8.80
2019-02-17T06:00:40.530Z,7.77
2019-02-17T06:05:31.439Z,8.47
2019-02-17T06:10:22.352Z,8.47
2019-02-17T06:15:13.246Z,7.13
2019-02-17T06:20:04.886Z,7.83
2019-02-17T06:24:55.804Z,7.43
2019-02-17T06:29:49.069Z,7.93
2019-02-17T06:34:38.382Z,8.87
2019-02-17T06:39:29.302Z,8.23
2019-02-17T06:44:20.211Z,7.90
2019-02-17T06:49:11.864Z,9.23
2019-02-17T06:54:02.769Z,9.37
2019-02-17T06:58:53.700Z,8.70
2019-02-17T07:03:44.619Z,8.77
2019-02-17T07:08:35.557Z,8.00
2019-02-17T07:13:26.468Z,7.80
2019-02-17T07:18:17.384Z,7.90
2019-02-17T07:23:08.300Z,8.00
2019-02-17T07:27:59.207Z,8.20
2019-02-17T07:32:50.247Z,7.03
2019-02-17T07:37:41.165Z,8.50
2019-02-17T07:42:32.112Z,9.03
2019-02-17T07:47:23.038Z,9.38
2019-02-17T07:52:13.960Z,8.53
2019-02-17T07:57:04.865Z,9.10
2019-02-17T08:01:55.773Z,7.90
2019-02-17T08:06:46.699Z,7.50
2019-02-17T08:11:37.615Z,8.57
2019-02-17T08:16:28.531Z,9.93
2019-02-17T08:21:19.440Z,9.13
2019-02-17T08:26:10.351Z,8.97
2019-02-17T08:31:01.253Z,8.37
2019-02-17T08:35:52.145Z,10.50
2019-02-17T08:40:43.046Z,10.55
2019-02-17T08:45:34.061Z,8.27
2019-02-17T08:50:24.962Z,9.07
2019-02-17T08:55:16.605Z,8.37
2019-02-17T09:00:09.308Z,9.17
2019-02-17T09:05:00.321Z,9.90
2019-02-17T09:09:51.299Z,8.83
2019-02-17T09:14:42.230Z,9.70
2019-02-17T09:19:33.255Z,9.20
2019-02-17T09:24:24.161Z,11.52
2019-02-17T09:29:15.089Z,11.23
2019-02-17T09:34:05.995Z,11.17
2019-02-17T09:38:56.911Z,11.93
2019-02-17T09:43:48.088Z,11.20
2019-02-17T09:48:38.806Z,11.50
2019-02-17T09:53:29.732Z,11.90
2019-02-17T09:58:20.646Z,11.40
2019-02-17T10:03:12.071Z,12.53
2019-02-17T10:08:02.991Z,12.20
2019-02-17T10:12:53.896Z,14.00
2019-02-17T10:17:45.543Z,14.70
2019-02-17T10:22:37.190Z,13.00
2019-02-17T10:27:28.110Z,13.20
2019-02-17T10:32:19.031Z,10.70
2019-02-17T10:37:10.008Z,12.47
2019-02-17T10:42:01.664Z,14.03
2019-02-17T10:46:52.667Z,12.93
2019-02-17T10:51:44.368Z,12.23
2019-02-17T10:56:35.281Z,12.80
2019-02-17T11:01:26.203Z,14.20
2019-02-17T11:06:17.122Z,13.93
2019-02-17T11:11:08.037Z,13.70
2019-02-17T11:15:58.941Z,13.20
2019-02-17T11:20:49.893Z,13.90
2019-02-17T11:25:42.281Z,14.70
2019-02-17T11:30:33.933Z,13.37
2019-02-17T11:35:24.843Z,14.63
2019-02-17T11:40:15.756Z,14.02
2019-02-17T11:45:10.444Z,13.63
2019-02-17T11:50:02.124Z,14.20
2019-02-17T11:54:53.040Z,12.90
2019-02-17T11:59:43.964Z,12.83
2019-02-17T12:04:34.882Z,12.43
2019-02-17T12:09:25.821Z,14.30
2019-02-17T12:14:16.754Z,14.10
2019-02-17T12:19:07.691Z,13.00
2019-02-17T12:24:04.863Z,11.80
2019-02-17T12:28:56.518Z,11.70
2019-02-17T12:33:47.421Z,12.83
2019-02-17T12:38:39.091Z,11.40
2019-02-17T12:43:30.051Z,13.40
2019-02-17T12:48:20.970Z,12.40
2019-02-17T12:53:11.869Z,11.47
2019-02-17T12:58:02.788Z,11.00
2019-02-17T13:02:53.706Z,10.77
2019-02-17T13:07:44.607Z,11.00
2019-02-17T13:12:35.538Z,12.27
2019-02-17T13:17:26.477Z,13.07
2019-02-17T13:22:17.398Z,11.50
2019-02-17T13:27:09.034Z,12.17
2019-02-17T13:31:59.951Z,11.90
2019-02-17T13:36:50.854Z,12.10
2019-02-17T13:41:41.764Z,12.10
2019-02-17T13:46:32.926Z,11.23
2019-02-17T13:51:23.820Z,10.70
2019-02-17T13:56:14.732Z,11.40
2019-02-17T14:01:05.633Z,10.93
2019-02-17T14:06:03.599Z,10.17
2019-02-17T14:10:54.520Z,11.17
2019-02-17T14:15:45.425Z,11.53
2019-02-17T14:20:37.065Z,11.37
2019-02-17T14:25:28.713Z,10.40
2019-02-17T14:30:19.613Z,9.47
2019-02-17T14:35:11.286Z,12.00
2019-02-17T14:40:02.246Z,10.53
2019-02-17T14:44:53.894Z,11.37
2019-02-17T14:49:45.566Z,10.60
2019-02-17T14:54:37.827Z,10.00
2019-02-17T14:59:28.821Z,9.90
2019-02-17T15:04:19.722Z,10.98
2019-02-17T15:09:11.365Z,10.45
2019-02-17T15:14:03.037Z,10.17
2019-02-17T15:18:53.941Z,10.60
2019-02-17T15:23:44.846Z,10.47
2019-02-17T15:28:35.763Z,10.50
2019-02-17T15:33:26.678Z,11.60
2019-02-17T15:38:18.342Z,11.07
2019-02-17T15:43:09.271Z,11.60
2019-02-17T15:48:00.174Z,11.43
2019-02-17T15:52:51.085Z,11.20
2019-02-17T15:57:42.015Z,10.67
2019-02-17T16:02:32.926Z,12.35
2019-02-17T16:07:23.839Z,13.00
2019-02-17T16:12:14.753Z,11.93
2019-02-17T16:17:05.657Z,11.90
2019-02-17T16:21:58.221Z,11.63
2019-02-17T16:26:49.869Z,11.77
2019-02-17T16:31:40.777Z,13.80
2019-02-17T16:36:32.428Z,13.67
2019-02-17T16:41:23.359Z,12.70
2019-02-17T16:46:14.283Z,12.13
2019-02-17T16:51:05.187Z,12.07
2019-02-17T16:55:56.143Z,12.93
2019-02-17T17:00:47.076Z,12.93
2019-02-17T17:05:38.005Z,12.80
2019-02-17T17:10:29.054Z,13.32
2019-02-17T17:15:20.008Z,11.57
2019-02-17T17:20:11.775Z,12.27
2019-02-17T17:25:02.687Z,11.97
2019-02-17T17:29:53.588Z,12.93
2019-02-17T17:34:44.493Z,12.90
2019-02-17T17:39:35.407Z,13.62
2019-02-17T17:44:26.344Z,10.80
2019-02-17T17:49:19.459Z,13.23
2019-02-17T17:54:08.909Z,13.57
2019-02-17T17:58:59.832Z,13.10
2019-02-17T18:03:50.739Z,13.50
2019-02-17T18:08:41.666Z,13.70
2019-02-17T18:13:32.630Z,12.60
2019-02-17T18:18:24.849Z,12.60
2019-02-17T18:23:15.511Z,11.93
2019-02-17T18:28:06.429Z,11.20
2019-02-17T18:32:57.343Z,12.65
2019-02-17T18:37:48.247Z,12.90
2019-02-17T18:42:39.908Z,13.00
2019-02-17T18:47:30.809Z,12.17
2019-02-17T18:52:21.727Z,13.40
2019-02-17T18:57:12.655Z,10.43
2019-02-17T19:02:03.583Z,11.70
2019-02-17T19:06:54.503Z,11.75
2019-02-17T19:11:45.423Z,11.40
2019-02-17T19:16:37.039Z,11.57
2019-02-17T19:21:28.009Z,11.90
2019-02-17T19:26:19.069Z,10.10
2019-02-17T19:31:10.713Z,10.90
2019-02-17T19:36:01.702Z,9.93
2019-02-17T19:40:52.615Z,10.93
2019-02-17T19:45:43.530Z,10.63
2019-02-17T19:50:34.997Z,11.82
2019-02-17T19:55:26.645Z,11.60
2019-02-17T20:00:18.474Z,11.33
2019-02-17T20:05:10.467Z,10.80
2019-02-17T20:10:01.991Z,11.33
2019-02-17T20:14:52.904Z,11.20
2019-02-17T20:19:43.829Z,12.03
2019-02-17T20:24:34.759Z,12.70
2019-02-17T20:29:25.688Z,11.50
2019-02-17T20:34:16.621Z,11.97
2019-02-17T20:39:08.273Z,11.20
2019-02-17T20:43:59.947Z,11.13
2019-02-17T20:48:52.446Z,11.13
2019-02-17T20:53:41.795Z,10.97
2019-02-17T20:58:32.730Z,11.57
2019-02-17T21:03:23.653Z,12.20
2019-02-17T21:08:14.686Z,11.03
2019-02-17T21:13:05.599Z,13.70
2019-02-17T21:17:56.862Z,13.00
2019-02-17T21:22:47.766Z,11.40
2019-02-17T21:27:39.441Z,11.90
2019-02-17T21:32:30.525Z,13.53
2019-02-17T21:37:21.483Z,11.00
2019-02-17T21:42:12.732Z,11.60
2019-02-17T21:47:04.452Z,13.25
2019-02-17T21:51:55.850Z,12.85
2019-02-17T21:56:46.792Z,12.57
2019-02-17T22:01:37.703Z,12.47
2019-02-17T22:06:33.551Z,11.63
2019-02-17T22:11:20.467Z,12.40
2019-02-17T22:16:11.487Z,12.07
2019-02-17T22:21:02.393Z,11.50
2019-02-17T22:25:54.429Z,12.50
2019-02-17T22:30:46.200Z,11.90
2019-02-17T22:35:37.483Z,12.03
2019-02-17T22:40:29.153Z,12.07
2019-02-17T22:45:20.087Z,11.73
2019-02-17T22:50:11.004Z,11.53
2019-02-17T22:55:01.947Z,10.40
2019-02-17T23:05:11.878Z,12.10
2019-02-17T23:10:03.526Z,12.75
2019-02-17T23:14:54.449Z,13.03
2019-02-17T23:19:45.343Z,11.80
2019-02-17T23:24:36.996Z,12.43
2019-02-17T23:29:27.890Z,11.43
2019-02-17T23:34:19.545Z,11.00
2019-02-17T23:39:11.183Z,11.90
2019-02-17T23:44:02.095Z,11.40
2019-02-17T23:48:53.743Z,11.40
2019-02-17T23:53:44.663Z,12.60
2019-02-17T23:58:35.567Z,12.52
